createdAt,value
2017-10-14T00:00:05.584Z,22
2017-10-14T00:02:05.356Z,22
2017-10-14T00:04:05.043Z,22
2017-10-14T00:06:04.788Z,22
2017-10-14T00:08:05.707Z,22
2017-10-14T00:10:07.922Z,22
2017-10-14T00:12:04.613Z,22
2017-10-14T00:14:05.342Z,22
2017-10-14T00:16:08.133Z,22
2017-10-14T00:18:05.093Z,22
2017-10-14T00:20:04.899Z,22
2017-10-14T00:22:08.132Z,22
2017-10-14T00:24:04.828Z,22
2017-10-14T00:26:05.609Z,22
2017-10-14T00:28:05.308Z,22
2017-10-14T00:30:07.578Z,22
2017-10-14T00:32:04.986Z,22
2017-10-14T00:34:04.763Z,22
2017-10-14T00:36:05.444Z,22
2017-10-14T00:38:05.265Z,22
2017-10-14T00:40:05.481Z,22
2017-10-14T00:42:05.189Z,22
2017-10-14T00:44:05.464Z,22
2017-10-14T00:46:12.751Z,22
2017-10-14T00:48:09.774Z,22
2017-10-14T00:50:05.527Z,22
2017-10-14T00:52:05.264Z,22
2017-10-14T00:54:05.504Z,22
2017-10-14T00:56:05.435Z,22
2017-10-14T00:58:07.732Z,22
2017-10-14T01:00:04.956Z,22
2017-10-14T01:02:04.717Z,21.9
2017-10-14T01:04:07.610Z,22
2017-10-14T01:06:10.635Z,22
2017-10-14T01:08:05.510Z,22
2017-10-14T01:10:04.938Z,22
2017-10-14T01:12:04.629Z,22
2017-10-14T01:14:05.596Z,22
2017-10-14T01:16:05.056Z,21.9
2017-10-14T01:18:07.542Z,22
2017-10-14T01:20:07.854Z,21.9
2017-10-14T01:22:05.587Z,21.9
2017-10-14T01:24:10.158Z,22
2017-10-14T01:26:04.961Z,22
2017-10-14T01:28:05.663Z,22
2017-10-14T01:30:05.337Z,22
2017-10-14T01:32:07.668Z,21.9
2017-10-14T01:34:05.454Z,22
2017-10-14T01:36:05.216Z,22
2017-10-14T01:38:04.911Z,21.9
2017-10-14T01:40:10.670Z,21.9
2017-10-14T01:42:05.116Z,21.9
2017-10-14T01:44:05.387Z,21.9
2017-10-14T01:46:05.614Z,21.9
2017-10-14T01:48:05.329Z,21.9
2017-10-14T01:50:10.345Z,21.9
2017-10-14T01:52:05.607Z,21.9
2017-10-14T01:54:07.423Z,22
2017-10-14T01:56:10.299Z,21.9
2017-10-14T01:58:04.987Z,22
2017-10-14T02:00:05.235Z,21.9
2017-10-14T02:02:07.515Z,21.9
2017-10-14T02:04:05.182Z,21.9
2017-10-14T02:06:07.405Z,21.9
2017-10-14T02:08:07.172Z,21.9
2017-10-14T02:10:04.931Z,21.9
2017-10-14T02:12:04.657Z,21.9
2017-10-14T02:14:07.950Z,21.9
2017-10-14T02:16:07.284Z,21.9
2017-10-14T02:18:07.808Z,21.9
2017-10-14T02:20:05.605Z,21.9
2017-10-14T02:22:07.371Z,21.9
2017-10-14T02:24:05.082Z,21.9
2017-10-14T02:26:04.924Z,21.9
2017-10-14T02:28:08.139Z,21.9
2017-10-14T02:30:04.807Z,21.9
2017-10-14T02:32:13.054Z,21.9
2017-10-14T02:34:04.722Z,21.9
2017-10-14T02:36:07.945Z,21.9
2017-10-14T02:38:04.774Z,21.9
2017-10-14T02:40:05.493Z,21.9
2017-10-14T02:42:07.711Z,21.9
2017-10-14T02:44:05.518Z,21.9
2017-10-14T02:46:04.746Z,21.9
2017-10-14T02:48:05.540Z,21.9
2017-10-14T02:50:05.247Z,21.9
2017-10-14T02:52:07.553Z,21.9
2017-10-14T02:54:05.322Z,21.9
2017-10-14T02:56:07.569Z,21.9
2017-10-14T02:58:05.298Z,21.9
2017-10-14T03:00:07.639Z,21.9
2017-10-14T03:02:05.437Z,21.9
2017-10-14T03:04:05.179Z,21.9
2017-10-14T03:06:04.877Z,21.9
2017-10-14T03:08:05.690Z,21.9
2017-10-14T03:10:08.032Z,21.9
2017-10-14T03:12:05.282Z,21.9
2017-10-14T03:14:05.027Z,21.9
2017-10-14T03:16:09.767Z,21.9
2017-10-14T03:18:04.678Z,21.9
2017-10-14T03:20:05.392Z,21.9
2017-10-14T03:22:08.122Z,21.9
2017-10-14T03:24:09.887Z,21.9
2017-10-14T03:26:05.663Z,21.9
2017-10-14T03:28:05.450Z,21.9
2017-10-14T03:30:05.247Z,21.9
2017-10-14T03:32:05.522Z,21.9
2017-10-14T03:34:05.295Z,21.9
2017-10-14T03:36:07.551Z,21.9
2017-10-14T03:38:05.303Z,21.9
2017-10-14T03:40:04.988Z,21.9
2017-10-14T03:42:04.696Z,21.9
2017-10-14T03:44:05.517Z,21.9
2017-10-14T03:46:05.333Z,21.9
2017-10-14T03:48:05.113Z,21.9
2017-10-14T03:50:04.954Z,21.9
2017-10-14T03:52:04.660Z,21.9
2017-10-14T03:54:04.925Z,21.9
2017-10-14T03:56:04.713Z,21.9
2017-10-14T03:58:10.517Z,21.9
2017-10-14T04:00:05.194Z,21.9
2017-10-14T04:02:07.562Z,21.9
2017-10-14T04:04:05.208Z,21.9
2017-10-14T04:06:04.922Z,21.9
2017-10-14T04:08:04.719Z,21.9
2017-10-14T04:10:05.481Z,21.9
2017-10-14T04:12:05.272Z,21.9
2017-10-14T04:14:05.103Z,21.9
2017-10-14T04:16:05.358Z,21.9
2017-10-14T04:18:07.895Z,21.9
2017-10-14T04:20:12.697Z,21.9
2017-10-14T04:22:07.947Z,21.9
2017-10-14T04:24:04.646Z,21.9
2017-10-14T04:26:05.350Z,21.9
2017-10-14T04:28:05.091Z,21.9
2017-10-14T04:30:09.928Z,21.9
2017-10-14T04:32:08.177Z,21.9
2017-10-14T04:34:07.983Z,21.9
2017-10-14T04:36:10.807Z,21.9
2017-10-14T04:38:05.064Z,21.9
2017-10-14T04:40:04.769Z,21.9
2017-10-14T04:42:05.493Z,21.9
2017-10-14T04:44:07.793Z,21.9
2017-10-14T04:46:07.526Z,21.9
2017-10-14T04:48:05.408Z,21.9
2017-10-14T04:50:07.641Z,21.9
2017-10-14T04:52:05.309Z,21.9
2017-10-14T04:54:05.041Z,21.9
2017-10-14T04:56:04.748Z,21.9
2017-10-14T04:58:04.946Z,21.9
2017-10-14T05:00:05.136Z,21.9
2017-10-14T05:02:04.958Z,21.8
2017-10-14T05:04:04.708Z,21.9
2017-10-14T05:06:05.426Z,21.9
2017-10-14T05:08:07.721Z,21.9
2017-10-14T05:10:05.414Z,21.8
2017-10-14T05:12:10.225Z,21.8
2017-10-14T05:14:05.653Z,21.9
2017-10-14T05:16:09.928Z,21.9
2017-10-14T05:18:04.902Z,21.9
2017-10-14T05:20:05.310Z,21.9
2017-10-14T05:22:05.580Z,21.9
2017-10-14T05:24:05.256Z,21.9
2017-10-14T05:26:07.543Z,21.9
2017-10-14T05:28:09.845Z,21.8
2017-10-14T05:30:05.120Z,21.8
2017-10-14T05:32:05.448Z,21.9
2017-10-14T05:34:04.724Z,21.8
2017-10-14T05:36:05.459Z,21.9
2017-10-14T05:38:07.779Z,21.8
2017-10-14T05:40:05.429Z,21.8
2017-10-14T05:42:04.701Z,21.9
2017-10-14T05:44:05.428Z,21.9
2017-10-14T05:46:07.673Z,21.9
2017-10-14T05:48:05.390Z,21.8
2017-10-14T05:50:04.783Z,21.8
2017-10-14T05:52:05.462Z,21.8
2017-10-14T05:54:05.167Z,21.9
2017-10-14T05:56:04.999Z,21.9
2017-10-14T05:58:07.262Z,21.8
2017-10-14T06:00:04.967Z,21.8
2017-10-14T06:02:05.172Z,21.9
2017-10-14T06:04:04.881Z,21.9
2017-10-14T06:06:04.639Z,21.9
2017-10-14T06:08:05.445Z,21.9
2017-10-14T06:10:10.271Z,21.9
2017-10-14T06:12:05.535Z,21.9
2017-10-14T06:14:12.935Z,21.9
2017-10-14T06:16:07.194Z,21.9
2017-10-14T06:18:07.648Z,21.9
2017-10-14T06:20:05.319Z,21.9
2017-10-14T06:22:05.014Z,21.9
2017-10-14T06:24:07.255Z,21.9
2017-10-14T06:26:05.551Z,21.9
2017-10-14T06:28:05.273Z,22
2017-10-14T06:30:07.470Z,22
2017-10-14T06:32:05.159Z,22
2017-10-14T06:34:07.389Z,22
2017-10-14T06:36:05.122Z,22
2017-10-14T06:38:04.819Z,22
2017-10-14T06:40:05.525Z,22
2017-10-14T06:42:04.750Z,22
2017-10-14T06:44:05.554Z,22
2017-10-14T06:46:05.267Z,22.1
2017-10-14T06:48:04.990Z,22.1
2017-10-14T06:50:05.223Z,22.1
2017-10-14T06:52:04.882Z,22.1
2017-10-14T06:54:05.587Z,22.1
2017-10-14T06:56:05.298Z,22.1
2017-10-14T06:58:10.114Z,22.2
2017-10-14T07:00:04.777Z,22.2
2017-10-14T07:02:08.030Z,22.2
2017-10-14T07:04:04.820Z,22.2
2017-10-14T07:06:05.532Z,22.3
2017-10-14T07:08:04.838Z,22.3
2017-10-14T07:10:05.522Z,22.3
2017-10-14T07:12:05.277Z,22.4
2017-10-14T07:14:05.034Z,22.4
2017-10-14T07:16:05.393Z,22.4
2017-10-14T07:18:10.464Z,22.4
2017-10-14T07:20:07.457Z,22.4
2017-10-14T07:22:05.264Z,22.4
2017-10-14T07:24:05.264Z,22.4
2017-10-14T07:26:05.112Z,22.5
2017-10-14T07:28:07.461Z,22.5
2017-10-14T07:30:07.635Z,22.5
2017-10-14T07:32:07.941Z,22.5
2017-10-14T07:34:04.627Z,22.5
2017-10-14T07:36:05.268Z,22.5
2017-10-14T07:38:10.646Z,22.6
2017-10-14T07:40:05.095Z,22.5
2017-10-14T07:42:04.871Z,22.6
2017-10-14T07:44:07.771Z,22.6
2017-10-14T07:46:05.447Z,22.6
2017-10-14T07:48:05.210Z,22.7
2017-10-14T07:50:10.041Z,22.7
2017-10-14T07:52:04.718Z,22.7
2017-10-14T07:54:05.461Z,22.7
2017-10-14T07:56:05.194Z,22.8
2017-10-14T07:58:04.939Z,22.8
2017-10-14T08:00:05.603Z,22.8
2017-10-14T08:02:05.446Z,22.9
2017-10-14T08:04:05.176Z,22.9
2017-10-14T08:06:04.881Z,22.9
2017-10-14T08:08:05.584Z,22.9
2017-10-14T08:10:10.371Z,22.9
2017-10-14T08:12:05.121Z,22.9
2017-10-14T08:14:04.848Z,22.9
2017-10-14T08:16:05.387Z,22.9
2017-10-14T08:18:04.829Z,22.9
2017-10-14T08:20:08.232Z,22.9
2017-10-14T08:22:07.494Z,22.9
2017-10-14T08:24:07.795Z,22.9
2017-10-14T08:26:05.508Z,22.9
2017-10-14T08:28:05.237Z,22.9
2017-10-14T08:30:07.495Z,22.9
2017-10-14T08:32:05.230Z,22.9
2017-10-14T08:34:10.028Z,22.9
2017-10-14T08:36:04.764Z,22.9
2017-10-14T08:38:05.008Z,22.9
2017-10-14T08:40:05.361Z,22.9
2017-10-14T08:42:10.161Z,23
2017-10-14T08:44:09.904Z,23.1
2017-10-14T08:46:05.604Z,23.1
2017-10-14T08:48:05.398Z,23.1
2017-10-14T08:50:07.189Z,23.2
2017-10-14T08:52:05.433Z,23.2
2017-10-14T08:54:07.670Z,23.3
2017-10-14T08:56:05.708Z,23.3
2017-10-14T08:58:05.403Z,23.3
2017-10-14T09:00:04.661Z,23.3
2017-10-14T09:02:05.389Z,23.3
2017-10-14T09:04:09.741Z,23.3
2017-10-14T09:06:05.460Z,23.3
2017-10-14T09:08:05.170Z,23.3
2017-10-14T09:10:04.930Z,23.3
2017-10-14T09:12:04.661Z,23.3
2017-10-14T09:14:07.958Z,23.3
2017-10-14T09:16:04.640Z,23.2
2017-10-14T09:18:05.581Z,23.3
2017-10-14T09:20:05.337Z,23.2
2017-10-14T09:22:05.640Z,23.2
2017-10-14T09:24:05.362Z,23.3
2017-10-14T09:26:05.171Z,23.3
2017-10-14T09:28:07.478Z,23.3
2017-10-14T09:30:04.668Z,23.3
2017-10-14T09:32:07.366Z,23.4
2017-10-14T09:34:07.610Z,23.5
2017-10-14T09:36:07.859Z,23.5
2017-10-14T09:38:07.863Z,23.5
2017-10-14T09:40:04.830Z,23.4
2017-10-14T09:42:05.523Z,23.4
2017-10-14T09:44:04.775Z,23.4
2017-10-14T09:46:04.956Z,23.3
2017-10-14T09:48:07.184Z,23.3
2017-10-14T09:50:04.919Z,23.3
2017-10-14T09:52:05.795Z,23.2
2017-10-14T09:54:05.577Z,23.2
2017-10-14T09:56:04.828Z,23.2
2017-10-14T09:58:04.797Z,23.2
2017-10-14T10:00:05.763Z,23.2
2017-10-14T10:02:04.730Z,23.1
2017-10-14T10:04:05.489Z,23.2
2017-10-14T10:06:05.274Z,23.1
2017-10-14T10:08:10.028Z,23.1
2017-10-14T10:10:07.799Z,23.1
2017-10-14T10:12:04.757Z,23.2
2017-10-14T10:14:05.592Z,23.1
2017-10-14T10:16:05.355Z,23.2
2017-10-14T10:18:09.851Z,23.1
2017-10-14T10:20:08.127Z,23.1
2017-10-14T10:22:07.353Z,23.1
2017-10-14T10:24:05.070Z,23.1
2017-10-14T10:26:04.848Z,23.1
2017-10-14T10:28:05.123Z,23.1
2017-10-14T10:30:07.336Z,23.1
2017-10-14T10:32:07.628Z,23
2017-10-14T10:34:05.330Z,23
2017-10-14T10:36:05.119Z,23
2017-10-14T10:38:09.905Z,23
2017-10-14T10:40:04.616Z,23
2017-10-14T10:42:05.409Z,23
2017-10-14T10:44:05.186Z,23
2017-10-14T10:46:04.915Z,23
2017-10-14T10:48:04.631Z,23
2017-10-14T10:50:07.850Z,23
2017-10-14T10:52:05.532Z,23
2017-10-14T10:54:04.776Z,23
2017-10-14T10:56:05.500Z,23
2017-10-14T10:58:05.306Z,23
2017-10-14T11:00:05.011Z,23
2017-10-14T11:02:04.826Z,23
2017-10-14T11:04:05.588Z,23
2017-10-14T11:06:07.864Z,22.9
2017-10-14T11:08:05.583Z,22.9
2017-10-14T11:10:05.272Z,22.9
2017-10-14T11:12:07.661Z,23
2017-10-14T11:14:05.398Z,23
2017-10-14T11:16:07.242Z,23
2017-10-14T11:18:05.140Z,23
2017-10-14T11:20:04.954Z,23
2017-10-14T11:22:07.168Z,22.9
2017-10-14T11:24:04.891Z,22.9
2017-10-14T11:26:08.124Z,22.9
2017-10-14T11:28:04.850Z,22.9
2017-10-14T11:30:05.541Z,22.9
2017-10-14T11:32:07.780Z,22.9
2017-10-14T11:34:05.029Z,22.8
2017-10-14T11:36:04.742Z,22.8
2017-10-14T11:38:05.469Z,22.8
2017-10-14T11:40:10.200Z,22.8
2017-10-14T11:42:04.851Z,22.8
2017-10-14T11:44:05.798Z,22.8
2017-10-14T11:46:08.152Z,22.8
2017-10-14T11:48:07.382Z,22.8
2017-10-14T11:50:05.097Z,22.8
2017-10-14T11:52:04.858Z,22.8
2017-10-14T11:54:05.152Z,22.8
2017-10-14T11:56:07.350Z,22.9
2017-10-14T11:58:05.009Z,22.9
2017-10-14T12:00:04.723Z,22.8
2017-10-14T12:02:05.457Z,22.8
2017-10-14T12:04:07.654Z,22.8
2017-10-14T12:06:05.353Z,22.8
2017-10-14T12:08:05.117Z,22.8
2017-10-14T12:10:04.795Z,22.8
2017-10-14T12:12:05.059Z,22.8
2017-10-14T12:14:04.741Z,22.7
2017-10-14T12:16:05.457Z,22.7
2017-10-14T12:18:05.394Z,22.7
2017-10-14T12:20:04.698Z,22.7
2017-10-14T12:22:05.481Z,22.7
2017-10-14T12:24:05.287Z,22.7
2017-10-14T12:26:07.577Z,22.6
2017-10-14T12:28:05.317Z,22.6
2017-10-14T12:30:05.526Z,22.6
2017-10-14T12:32:07.770Z,22.6
2017-10-14T12:34:05.064Z,22.6
2017-10-14T12:36:07.320Z,22.6
2017-10-14T12:38:05.185Z,22.6
2017-10-14T12:40:07.499Z,22.6
2017-10-14T12:42:07.382Z,22.6
2017-10-14T12:44:05.400Z,22.6
2017-10-14T12:46:07.639Z,22.6
2017-10-14T12:48:05.368Z,22.6
2017-10-14T12:50:12.771Z,22.6
2017-10-14T12:52:05.485Z,22.6
2017-10-14T12:54:05.146Z,22.6
2017-10-14T12:56:05.108Z,22.6
2017-10-14T12:58:05.431Z,22.6
2017-10-14T13:00:12.290Z,22.6
2017-10-14T13:02:05.027Z,22.6
2017-10-14T13:04:07.380Z,22.6
2017-10-14T13:06:05.124Z,22.6
2017-10-14T13:08:04.957Z,22.6
2017-10-14T13:10:05.325Z,22.6
2017-10-14T13:12:05.046Z,22.6
2017-10-14T13:14:04.801Z,22.6
2017-10-14T13:16:08.106Z,22.6
2017-10-14T13:18:05.069Z,22.6
2017-10-14T13:20:04.851Z,22.6
2017-10-14T13:22:05.611Z,22.6
2017-10-14T13:24:07.442Z,22.6
2017-10-14T13:26:05.187Z,22.6
2017-10-14T13:28:05.446Z,22.6
2017-10-14T13:30:07.178Z,22.6
2017-10-14T13:32:04.921Z,22.6
2017-10-14T13:34:09.659Z,22.6
2017-10-14T13:36:10.432Z,22.6
2017-10-14T13:38:04.838Z,22.6
2017-10-14T13:40:05.620Z,22.6
2017-10-14T13:42:05.375Z,22.6
2017-10-14T13:44:05.084Z,22.6
2017-10-14T13:46:07.303Z,22.6
2017-10-14T13:48:07.603Z,22.6
2017-10-14T13:50:05.362Z,22.6
2017-10-14T13:52:05.054Z,22.6
2017-10-14T13:54:04.866Z,22.6
2017-10-14T13:56:04.804Z,22.6
2017-10-14T13:58:05.523Z,22.6
2017-10-14T14:00:07.763Z,22.6
2017-10-14T14:02:10.521Z,22.6
2017-10-14T14:04:05.230Z,22.6
2017-10-14T14:06:05.008Z,22.6
2017-10-14T14:08:07.339Z,22.6
2017-10-14T14:10:05.072Z,22.6
2017-10-14T14:12:07.844Z,22.7
2017-10-14T14:14:05.177Z,22.7
2017-10-14T14:16:05.076Z,22.7
2017-10-14T14:18:05.042Z,22.7
2017-10-14T14:20:04.768Z,22.7
2017-10-14T14:22:05.616Z,22.6
2017-10-14T14:24:05.400Z,22.7
2017-10-14T14:26:04.692Z,22.6
2017-10-14T14:28:05.392Z,22.6
2017-10-14T14:30:12.706Z,22.7
2017-10-14T14:32:05.432Z,22.6
2017-10-14T14:34:07.665Z,22.6
2017-10-14T14:36:05.375Z,22.6
2017-10-14T14:38:05.117Z,22.6
2017-10-14T14:40:04.891Z,22.6
2017-10-14T14:42:07.356Z,22.7
2017-10-14T14:44:05.121Z,22.7
2017-10-14T14:46:05.439Z,22.7
2017-10-14T14:48:10.416Z,22.7
2017-10-14T14:50:05.219Z,22.7
2017-10-14T14:52:05.124Z,22.7
2017-10-14T14:54:04.902Z,22.7
2017-10-14T14:56:04.759Z,22.7
2017-10-14T14:58:05.653Z,22.7
2017-10-14T15:00:05.451Z,22.7
2017-10-14T15:02:05.225Z,22.7
2017-10-14T15:04:04.900Z,22.7
2017-10-14T15:06:04.751Z,22.8
2017-10-14T15:08:10.590Z,22.8
2017-10-14T15:10:05.355Z,22.8
2017-10-14T15:12:05.118Z,22.7
2017-10-14T15:14:10.058Z,22.8
2017-10-14T15:16:04.781Z,22.8
2017-10-14T15:18:07.243Z,22.8
2017-10-14T15:20:07.507Z,22.8
2017-10-14T15:22:05.268Z,22.8
2017-10-14T15:24:05.151Z,22.7
2017-10-14T15:26:04.952Z,22.7
2017-10-14T15:28:04.684Z,22.7
2017-10-14T15:30:07.962Z,22.7
2017-10-14T15:32:04.825Z,22.7
2017-10-14T15:34:04.726Z,22.7
2017-10-14T15:36:04.691Z,22.7
2017-10-14T15:38:08.057Z,22.7
2017-10-14T15:40:07.868Z,22.8
2017-10-14T15:42:05.622Z,22.7
2017-10-14T15:44:05.457Z,22.7
2017-10-14T15:46:04.846Z,22.7
2017-10-14T15:48:04.706Z,22.7
2017-10-14T15:50:05.583Z,22.7
2017-10-14T15:52:04.806Z,22.7
2017-10-14T15:54:04.764Z,22.7
2017-10-14T15:56:04.841Z,22.7
2017-10-14T15:58:05.703Z,22.7
2017-10-14T16:00:07.847Z,22.7
2017-10-14T16:02:04.842Z,22.7
2017-10-14T16:04:05.538Z,22.7
2017-10-14T16:06:12.931Z,22.7
2017-10-14T16:08:12.471Z,22.7
2017-10-14T16:10:05.364Z,22.7
2017-10-14T16:12:05.394Z,22.7
2017-10-14T16:14:05.139Z,22.7
2017-10-14T16:16:05.431Z,22.7
2017-10-14T16:18:04.900Z,22.6
2017-10-14T16:20:04.797Z,22.6
2017-10-14T16:22:05.492Z,22.6
2017-10-14T16:24:07.769Z,22.6
2017-10-14T16:26:04.750Z,22.6
2017-10-14T16:28:05.462Z,22.6
2017-10-14T16:30:04.716Z,22.6
2017-10-14T16:32:05.512Z,22.6
2017-10-14T16:34:05.382Z,22.6
2017-10-14T16:36:05.167Z,22.6
2017-10-14T16:38:04.974Z,22.6
2017-10-14T16:40:05.723Z,22.6
2017-10-14T16:42:05.170Z,22.6
2017-10-14T16:44:05.005Z,22.5
2017-10-14T16:46:04.957Z,22.5
2017-10-14T16:48:09.779Z,22.5
2017-10-14T16:50:06.639Z,22.5
2017-10-14T16:52:07.447Z,22.5
2017-10-14T16:54:05.263Z,22.5
2017-10-14T16:56:05.555Z,22.5
2017-10-14T16:58:05.318Z,22.5
2017-10-14T17:00:08.028Z,22.5
2017-10-14T17:02:04.889Z,22.5
2017-10-14T17:04:04.790Z,22.5
2017-10-14T17:06:07.251Z,22.5
2017-10-14T17:08:05.088Z,22.5
2017-10-14T17:10:07.416Z,22.5
2017-10-14T17:12:05.106Z,22.5
2017-10-14T17:14:05.332Z,22.5
2017-10-14T17:16:07.551Z,22.5
2017-10-14T17:18:05.441Z,22.5
2017-10-14T17:20:05.390Z,22.5
2017-10-14T17:22:07.161Z,22.5
2017-10-14T17:24:04.970Z,22.5
2017-10-14T17:26:04.748Z,22.5
2017-10-14T17:28:10.590Z,22.5
2017-10-14T17:30:05.267Z,22.5
2017-10-14T17:36:07.637Z,22.5
2017-10-14T17:38:05.496Z,22.5
2017-10-14T17:40:05.346Z,22.5
2017-10-14T17:42:05.887Z,22.5
2017-10-14T17:44:04.650Z,22.5
2017-10-14T17:46:04.969Z,22.5
2017-10-14T17:48:06.477Z,22.5
2017-10-14T17:50:05.256Z,22.5
2017-10-14T17:52:05.124Z,22.4
2017-10-14T17:54:12.403Z,22.5
2017-10-14T17:56:15.286Z,22.5
2017-10-14T17:58:05.233Z,22.5
2017-10-14T18:00:04.995Z,22.5
2017-10-14T18:02:04.742Z,22.5
2017-10-14T18:04:05.432Z,22.4
2017-10-14T18:06:07.784Z,22.4
2017-10-14T18:08:09.858Z,22.4
2017-10-14T18:10:08.091Z,22.4
2017-10-14T18:12:04.785Z,22.4
2017-10-14T18:14:05.479Z,22.4
2017-10-14T18:16:05.232Z,22.4
2017-10-14T18:18:04.956Z,22.4
2017-10-14T18:20:07.182Z,22.4
2017-10-14T18:22:07.783Z,22.4
2017-10-14T18:24:15.521Z,22.3
2017-10-14T18:26:17.878Z,22.3
2017-10-14T18:28:09.903Z,22.3
2017-10-14T18:30:04.760Z,22.4
2017-10-14T18:32:10.555Z,22.4
2017-10-14T18:34:05.354Z,22.4
2017-10-14T18:36:04.722Z,22.4
2017-10-14T18:38:05.479Z,22.4
2017-10-14T18:40:10.252Z,22.3
2017-10-14T18:42:05.038Z,22.3
2017-10-14T18:44:04.787Z,22.3
2017-10-14T18:46:05.488Z,22.4
2017-10-14T18:48:07.918Z,22.3
2017-10-14T18:50:05.642Z,22.3
2017-10-14T18:52:10.409Z,22.3
2017-10-14T18:54:07.747Z,22.3
2017-10-14T18:56:04.707Z,22.3
2017-10-14T18:58:10.455Z,22.3
2017-10-14T19:00:05.292Z,22.3
2017-10-14T19:02:05.213Z,22.3
2017-10-14T19:04:07.668Z,22.4
2017-10-14T19:06:05.414Z,22.4
2017-10-14T19:08:05.197Z,22.3
2017-10-14T19:10:05.036Z,22.4
2017-10-14T19:12:04.801Z,22.4
2017-10-14T19:14:05.058Z,22.4
2017-10-14T19:16:07.277Z,22.4
2017-10-14T19:18:05.287Z,22.3
2017-10-14T19:20:05.227Z,22.3
2017-10-14T19:22:04.912Z,22.3
2017-10-14T19:24:06.443Z,22.3
2017-10-14T19:26:04.989Z,22.3
2017-10-14T19:28:05.287Z,22.3
2017-10-14T19:30:05.074Z,22.3
2017-10-14T19:32:05.360Z,22.3
2017-10-14T19:34:07.260Z,22.3
2017-10-14T19:36:05.045Z,22.3
2017-10-14T19:38:04.765Z,22.3
2017-10-14T19:40:05.550Z,22.3
2017-10-14T19:42:05.278Z,22.2
2017-10-14T19:44:10.078Z,22.3
2017-10-14T19:46:07.950Z,22.2
2017-10-14T19:48:07.420Z,22.2
2017-10-14T19:50:04.878Z,22.2
2017-10-14T19:52:05.145Z,22.2
2017-10-14T19:54:04.994Z,22.2
2017-10-14T19:56:04.705Z,22.2
2017-10-14T19:58:10.535Z,22.2
2017-10-14T20:00:04.840Z,22.2
2017-10-14T20:02:08.345Z,22.2
2017-10-14T20:04:05.518Z,22.2
2017-10-14T20:06:10.592Z,22.2
2017-10-14T20:08:05.599Z,22.2
2017-10-14T20:10:05.336Z,22.2
2017-10-14T20:12:05.101Z,22.2
2017-10-14T20:14:04.857Z,22.2
2017-10-14T20:16:05.653Z,22.2
2017-10-14T20:18:08.173Z,22.2
2017-10-14T20:20:07.496Z,22.2
2017-10-14T20:22:05.479Z,22.2
2017-10-14T20:24:05.385Z,22.2
2017-10-14T20:26:04.634Z,22.1
2017-10-14T20:28:05.343Z,22.1
2017-10-14T20:30:05.109Z,22.1
2017-10-14T20:32:05.622Z,22.2
2017-10-14T20:34:05.587Z,22.1
2017-10-14T20:36:04.946Z,22.1
2017-10-14T20:38:07.505Z,22.1
2017-10-14T20:40:05.231Z,22.1
2017-10-14T20:42:04.976Z,22.1
2017-10-14T20:44:04.661Z,22.1
2017-10-14T20:46:07.897Z,22.1
2017-10-14T20:48:07.867Z,22.1
2017-10-14T20:50:05.673Z,22.1
2017-10-14T20:52:07.959Z,22.1
2017-10-14T20:54:04.662Z,22.1
2017-10-14T20:56:05.020Z,22.1
2017-10-14T20:58:04.690Z,22.1
2017-10-14T21:00:04.932Z,22.1
2017-10-14T21:02:05.459Z,22.1
2017-10-14T21:04:05.015Z,22
2017-10-14T21:06:07.284Z,22
2017-10-14T21:08:04.969Z,22
2017-10-14T21:10:04.710Z,22
2017-10-14T21:12:05.432Z,22
2017-10-14T21:14:05.152Z,22
2017-10-14T21:16:07.392Z,22
2017-10-14T21:18:05.309Z,22
2017-10-14T21:20:05.036Z,22
2017-10-14T21:22:04.771Z,22
2017-10-14T21:24:05.540Z,22
2017-10-14T21:26:05.253Z,22
2017-10-14T21:28:07.517Z,22
2017-10-14T21:30:07.407Z,22
2017-10-14T21:32:04.695Z,22
2017-10-14T21:34:07.974Z,22
2017-10-14T21:36:04.764Z,22
2017-10-14T21:38:08.055Z,22
2017-10-14T21:40:04.908Z,22
2017-10-14T21:42:05.752Z,22
2017-10-14T21:44:05.570Z,22
2017-10-14T21:46:04.879Z,22
2017-10-14T21:48:08.189Z,22
2017-10-14T21:50:05.489Z,22
2017-10-14T21:52:04.945Z,22
2017-10-14T21:54:04.655Z,22
2017-10-14T21:56:10.412Z,21.9
2017-10-14T21:58:05.157Z,21.9
2017-10-14T22:00:07.479Z,22
2017-10-14T22:02:10.229Z,22
2017-10-14T22:04:07.469Z,22
2017-10-14T22:06:04.886Z,22
2017-10-14T22:08:10.734Z,21.9
2017-10-14T22:10:05.138Z,21.9
2017-10-14T22:12:04.889Z,21.9
2017-10-14T22:14:05.599Z,21.9
2017-10-14T22:16:05.350Z,21.9
2017-10-14T22:18:07.829Z,21.9
2017-10-14T22:20:04.634Z,21.9
2017-10-14T22:22:07.875Z,21.9
2017-10-14T22:24:05.734Z,21.9
2017-10-14T22:26:05.416Z,21.9
2017-10-14T22:28:05.233Z,21.9
2017-10-14T22:30:05.090Z,21.9
2017-10-14T22:32:05.413Z,21.9
2017-10-14T22:34:10.210Z,21.9
2017-10-14T22:36:04.975Z,21.9
2017-10-14T22:38:05.233Z,21.9
2017-10-14T22:40:04.948Z,21.9
2017-10-14T22:42:07.215Z,21.9
2017-10-14T22:44:04.965Z,21.9
2017-10-14T22:46:04.707Z,21.9
2017-10-14T22:48:05.485Z,21.8
2017-10-14T22:50:05.353Z,21.9
2017-10-14T22:52:07.578Z,21.9
2017-10-14T22:54:05.340Z,21.8
2017-10-14T22:56:05.645Z,21.8
2017-10-14T22:58:05.421Z,21.8
2017-10-14T23:00:04.767Z,21.8
2017-10-14T23:02:05.062Z,21.8
2017-10-14T23:04:04.784Z,21.8
2017-10-14T23:06:08.030Z,21.8
2017-10-14T23:08:05.264Z,21.8
2017-10-14T23:10:05.039Z,21.8
2017-10-14T23:12:04.825Z,21.8
2017-10-14T23:14:08.127Z,21.8
2017-10-14T23:16:04.837Z,21.8
2017-10-14T23:18:12.390Z,21.8
2017-10-14T23:20:05.190Z,21.8
2017-10-14T23:22:04.936Z,21.8
2017-10-14T23:24:05.332Z,21.8
2017-10-14T23:26:05.065Z,21.8
2017-10-14T23:28:04.940Z,21.8
2017-10-14T23:30:04.716Z,21.8
2017-10-14T23:32:13.113Z,21.8
2017-10-14T23:34:04.958Z,21.8
2017-10-14T23:36:04.736Z,21.8
2017-10-14T23:38:05.477Z,21.8
2017-10-14T23:40:05.198Z,21.8
2017-10-14T23:42:05.563Z,21.8
2017-10-14T23:44:12.880Z,21.7
2017-10-14T23:46:04.615Z,21.7
2017-10-14T23:48:04.861Z,21.7
2017-10-14T23:50:05.631Z,21.8
2017-10-14T23:52:08.025Z,21.8
2017-10-14T23:54:07.878Z,21.8
2017-10-14T23:56:08.200Z,21.7
2017-10-14T23:58:04.996Z,21.7
